createdAt,value
2023-02-16T00:02:57.902Z,97330.00
2023-02-16T00:07:02.658Z,97326.00
2023-02-16T00:11:23.266Z,97326.00
2023-02-16T00:15:26.816Z,97319.00
2023-02-16T00:19:36.694Z,97310.00
2023-02-16T00:23:43.717Z,97315.00
2023-02-16T00:27:48.439Z,97316.00
2023-02-16T00:31:55.680Z,97308.00
2023-02-16T00:35:58.884Z,97310.00
2023-02-16T00:40:05.053Z,97311.00
2023-02-16T00:44:16.036Z,97307.00
2023-02-16T00:48:19.211Z,97310.00
2023-02-16T00:52:33.583Z,97304.00
2023-02-16T00:56:38.490Z,97306.00
2023-02-16T01:00:44.009Z,97308.00
2023-02-16T01:04:47.415Z,97303.00
2023-02-16T01:09:23.253Z,97299.00
2023-02-16T01:13:29.719Z,97304.00
2023-02-16T01:17:32.736Z,97304.00
2023-02-16T01:21:36.087Z,97295.00
2023-02-16T01:25:40.025Z,97292.00
2023-02-16T01:29:46.508Z,97294.00
2023-02-16T01:33:52.454Z,97288.00
2023-02-16T01:37:55.930Z,97290.00
2023-02-16T01:42:11.808Z,97296.00
2023-02-16T01:46:21.576Z,97290.00
2023-02-16T01:50:27.667Z,97285.00
2023-02-16T01:54:43.096Z,97278.00
2023-02-16T01:58:52.586Z,97274.00
2023-02-16T02:03:17.661Z,97269.00
2023-02-16T02:07:27.929Z,97269.00
2023-02-16T02:11:36.449Z,97258.00
2023-02-16T02:15:43.564Z,97256.00
2023-02-16T02:19:58.990Z,97264.00
2023-02-16T02:24:23.798Z,97249.00
2023-02-16T02:28:37.136Z,97256.00
2023-02-16T02:33:08.676Z,97248.00
2023-02-16T02:37:20.353Z,97247.00
2023-02-16T02:41:49.010Z,97247.00
2023-02-16T02:45:57.683Z,97241.00
2023-02-16T02:50:01.887Z,97246.00
2023-02-16T02:54:26.157Z,97253.00
2023-02-16T02:58:56.492Z,97239.00
2023-02-16T03:03:10.779Z,97230.00
2023-02-16T03:07:17.734Z,97235.00
2023-02-16T03:11:40.927Z,97228.00
2023-02-16T03:15:46.916Z,97228.00
2023-02-16T03:20:10.521Z,97224.00
2023-02-16T03:24:34.706Z,97225.00
2023-02-16T03:28:59.598Z,97227.00
2023-02-16T03:33:03.125Z,97230.00
2023-02-16T03:37:07.836Z,97237.00
2023-02-16T03:41:11.383Z,97227.00
2023-02-16T03:45:19.077Z,97242.00
2023-02-16T03:49:25.851Z,97243.00
2023-02-16T03:53:30.298Z,97244.00
2023-02-16T03:57:33.766Z,97237.00
2023-02-16T04:01:45.977Z,97252.00
2023-02-16T04:05:49.297Z,97248.00
2023-02-16T04:09:53.925Z,97247.00
2023-02-16T04:13:56.995Z,97242.00
2023-02-16T04:18:03.703Z,97237.00
2023-02-16T04:22:09.495Z,97242.00
2023-02-16T04:26:13.942Z,97232.00
2023-02-16T04:30:19.332Z,97240.00
2023-02-16T04:34:22.632Z,97229.00
2023-02-16T04:38:26.381Z,97228.00
2023-02-16T04:42:32.997Z,97235.00
2023-02-16T04:46:40.093Z,97229.00
2023-02-16T04:50:43.404Z,97218.00
2023-02-16T04:54:51.251Z,97232.00
2023-02-16T04:58:56.895Z,97226.00
2023-02-16T05:03:03.336Z,97215.00
2023-02-16T05:07:09.170Z,97237.00
2023-02-16T05:11:30.186Z,97231.00
2023-02-16T05:15:36.409Z,97239.00
2023-02-16T05:19:41.084Z,97231.00
2023-02-16T05:23:44.159Z,97226.00
2023-02-16T05:27:53.301Z,97242.00
2023-02-16T05:32:03.332Z,97232.00
2023-02-16T05:36:08.209Z,97235.00
2023-02-16T05:40:12.700Z,97231.00
2023-02-16T05:44:21.382Z,97229.00
2023-02-16T05:48:25.921Z,97230.00
2023-02-16T05:52:28.940Z,97231.00
2023-02-16T05:56:34.371Z,97257.00
2023-02-16T06:00:43.707Z,97279.00
2023-02-16T06:04:56.366Z,97285.00
2023-02-16T06:08:59.398Z,97277.00
2023-02-16T06:13:05.663Z,97301.00
2023-02-16T06:17:08.838Z,97288.00
2023-02-16T06:21:14.645Z,97278.00
2023-02-16T06:25:21.127Z,97289.00
2023-02-16T06:29:24.291Z,97285.00
2023-02-16T06:33:29.619Z,97284.00
2023-02-16T06:37:34.387Z,97287.00
2023-02-16T06:41:42.392Z,97295.00
2023-02-16T06:45:45.822Z,97298.00
2023-02-16T06:49:49.189Z,97301.00
2023-02-16T06:53:55.925Z,97303.00
2023-02-16T06:57:59.754Z,97300.00
2023-02-16T07:02:03.040Z,97298.00
2023-02-16T07:06:06.468Z,97299.00
2023-02-16T07:10:16.362Z,97302.00
2023-02-16T07:14:19.610Z,97300.00
2023-02-16T07:18:26.962Z,97296.00
2023-02-16T07:22:30.309Z,97296.00
2023-02-16T07:26:34.819Z,97312.00
2023-02-16T07:30:40.180Z,97311.00
2023-02-16T07:34:46.469Z,97307.00
2023-02-16T07:38:53.652Z,97312.00
2023-02-16T07:43:05.636Z,97308.00
2023-02-16T07:47:09.127Z,97317.00
2023-02-16T07:51:12.252Z,97319.00
2023-02-16T07:55:15.375Z,97318.00
2023-02-16T07:59:24.560Z,97318.00
2023-02-16T08:03:27.858Z,97321.00
2023-02-16T08:07:31.115Z,97308.00
2023-02-16T08:11:36.837Z,97317.00
2023-02-16T08:15:43.813Z,97322.00
2023-02-16T08:19:47.536Z,97319.00
2023-02-16T08:23:57.495Z,97319.00
2023-02-16T08:28:03.899Z,97321.00
2023-02-16T08:32:08.707Z,97319.00
2023-02-16T08:36:19.011Z,97317.00
2023-02-16T08:40:25.381Z,97323.00
2023-02-16T08:44:33.697Z,97332.00
2023-02-16T08:48:41.476Z,97330.00
2023-02-16T08:52:45.811Z,97331.00
2023-02-16T08:56:51.818Z,97335.00
2023-02-16T09:00:58.324Z,97344.00
2023-02-16T09:05:06.895Z,97350.00
2023-02-16T09:09:10.446Z,97332.00
2023-02-16T09:13:15.166Z,97345.00
2023-02-16T09:17:19.777Z,97340.00
2023-02-16T09:21:27.028Z,97350.00
2023-02-16T09:25:35.287Z,97356.00
2023-02-16T09:29:40.284Z,97359.00
2023-02-16T09:33:47.427Z,97353.00
2023-02-16T09:37:51.908Z,97359.00
2023-02-16T09:42:12.642Z,97354.00
2023-02-16T09:46:22.612Z,97360.00
2023-02-16T09:50:50.715Z,97351.00
2023-02-16T09:54:58.846Z,97361.00
2023-02-16T09:59:09.055Z,97359.00
2023-02-16T10:03:40.020Z,97364.00
2023-02-16T10:07:52.963Z,97356.00
2023-02-16T10:12:03.790Z,97364.00
2023-02-16T10:16:11.383Z,97359.00
2023-02-16T10:20:21.717Z,97364.00
2023-02-16T10:24:27.342Z,97366.00
2023-02-16T10:28:44.779Z,97363.00
2023-02-16T10:32:57.288Z,97361.00
2023-02-16T10:37:16.816Z,97355.00
2023-02-16T10:41:31.598Z,97353.00
2023-02-16T10:45:46.401Z,97357.00
2023-02-16T10:49:51.687Z,97354.00
2023-02-16T10:54:02.965Z,97347.00
2023-02-16T10:58:06.366Z,97342.00
2023-02-16T11:02:20.584Z,97333.00
2023-02-16T11:06:29.761Z,97332.00
2023-02-16T11:10:42.659Z,97320.00
2023-02-16T11:14:53.536Z,97318.00
2023-02-16T11:19:03.706Z,97319.00
2023-02-16T11:23:25.995Z,97319.00
2023-02-16T11:27:35.976Z,97320.00
2023-02-16T11:31:40.756Z,97322.00
2023-02-16T11:35:49.831Z,97307.00
2023-02-16T11:39:57.076Z,97309.00
2023-02-16T11:44:05.836Z,97309.00
2023-02-16T11:48:13.932Z,97294.00
2023-02-16T11:52:36.319Z,97293.00
2023-02-16T11:56:42.353Z,97299.00
2023-02-16T12:00:53.179Z,97284.00
2023-02-16T12:05:15.150Z,97281.00
2023-02-16T12:09:32.333Z,97273.00
2023-02-16T12:13:49.580Z,97280.00
2023-02-16T12:18:07.387Z,97277.00
2023-02-16T12:22:25.581Z,97261.00
2023-02-16T12:26:41.672Z,97272.00
2023-02-16T12:30:56.367Z,97258.00
2023-02-16T12:35:18.649Z,97258.00
2023-02-16T12:39:31.921Z,97264.00
2023-02-16T12:43:46.307Z,97259.00
2023-02-16T12:47:53.703Z,97257.00
2023-02-16T12:52:07.151Z,97245.00
2023-02-16T12:56:19.103Z,97242.00
2023-02-16T13:00:31.863Z,97233.00
2023-02-16T13:04:42.199Z,97224.00
2023-02-16T13:08:51.407Z,97226.00
2023-02-16T13:13:02.343Z,97222.00
2023-02-16T13:17:13.883Z,97223.00
2023-02-16T13:21:42.481Z,97213.00
2023-02-16T13:26:18.299Z,97215.00
2023-02-16T13:31:05.033Z,97217.00
2023-02-16T13:35:33.792Z,97214.00
2023-02-16T13:39:43.803Z,97209.00
2023-02-16T13:43:56.176Z,97195.00
2023-02-16T13:48:02.590Z,97196.00
2023-02-16T13:52:08.898Z,97199.00
2023-02-16T13:56:23.338Z,97195.00
2023-02-16T14:00:38.239Z,97187.00
2023-02-16T14:05:12.044Z,97188.00
2023-02-16T14:09:49.610Z,97190.00
2023-02-16T14:13:52.765Z,97185.00
2023-02-16T14:17:55.806Z,97183.00
2023-02-16T14:22:12.367Z,97175.00
2023-02-16T14:26:17.900Z,97184.00
2023-02-16T14:30:28.338Z,97184.00
2023-02-16T14:34:38.027Z,97195.00
2023-02-16T14:38:48.898Z,97183.00
2023-02-16T14:43:06.285Z,97190.00
2023-02-16T14:47:22.754Z,97192.00
2023-02-16T14:52:12.933Z,97181.00
2023-02-16T14:56:40.865Z,97196.00
2023-02-16T15:00:51.845Z,97196.00
2023-02-16T15:05:01.042Z,97193.00
2023-02-16T15:09:17.349Z,97194.00
2023-02-16T15:13:21.683Z,97187.00
2023-02-16T15:17:34.052Z,97182.00
2023-02-16T15:21:42.690Z,97194.00
2023-02-16T15:25:54.681Z,97196.00
2023-02-16T15:30:18.709Z,97183.00
2023-02-16T15:34:35.224Z,97185.00
2023-02-16T15:38:40.692Z,97181.00
2023-02-16T15:42:48.368Z,97177.00
2023-02-16T15:46:53.806Z,97183.00
2023-02-16T15:51:07.799Z,97182.00
2023-02-16T15:55:13.547Z,97176.00
2023-02-16T15:59:29.150Z,97177.00
2023-02-16T16:03:32.311Z,97176.00
2023-02-16T16:07:40.062Z,97178.00
2023-02-16T16:11:43.658Z,97183.00
2023-02-16T16:15:54.280Z,97181.00
2023-02-16T16:19:58.277Z,97183.00
2023-02-16T16:24:05.341Z,97183.00
2023-02-16T16:28:15.678Z,97182.00
2023-02-16T16:32:21.398Z,97183.00
2023-02-16T16:36:32.168Z,97179.00
2023-02-16T16:40:38.123Z,97173.00
2023-02-16T16:44:43.576Z,97183.00
2023-02-16T16:48:50.790Z,97186.00
2023-02-16T16:52:58.261Z,97189.00
2023-02-16T16:57:09.308Z,97186.00
2023-02-16T17:01:15.355Z,97183.00
2023-02-16T17:05:21.779Z,97191.00
2023-02-16T17:09:25.065Z,97194.00
2023-02-16T17:13:29.881Z,97186.00
2023-02-16T17:17:36.216Z,97189.00
2023-02-16T17:21:39.293Z,97199.00
2023-02-16T17:25:43.310Z,97183.00
2023-02-16T17:29:47.864Z,97188.00
2023-02-16T17:33:56.205Z,97177.00
2023-02-16T17:38:01.397Z,97170.00
2023-02-16T17:42:12.591Z,97172.00
2023-02-16T17:46:17.972Z,97171.00
2023-02-16T17:50:22.094Z,97169.00
2023-02-16T17:54:26.839Z,97180.00
2023-02-16T17:58:31.390Z,97173.00
2023-02-16T18:02:39.173Z,97167.00
2023-02-16T18:06:43.996Z,97171.00
2023-02-16T18:10:49.360Z,97161.00
2023-02-16T18:14:52.533Z,97172.00
2023-02-16T18:19:00.597Z,97165.00
2023-02-16T18:23:06.027Z,97168.00
2023-02-16T18:27:09.462Z,97171.00
2023-02-16T18:31:15.255Z,97171.00
2023-02-16T18:35:21.161Z,97167.00
2023-02-16T18:39:24.614Z,97171.00
2023-02-16T18:43:29.250Z,97167.00
2023-02-16T18:47:32.538Z,97168.00
2023-02-16T18:51:49.236Z,97169.00
2023-02-16T18:55:52.556Z,97172.00
2023-02-16T19:00:01.371Z,97169.00
2023-02-16T19:04:06.176Z,97169.00
2023-02-16T19:08:10.786Z,97177.00
2023-02-16T19:12:16.333Z,97181.00
2023-02-16T19:16:22.373Z,97172.00
2023-02-16T19:20:25.641Z,97173.00
2023-02-16T19:24:31.149Z,97169.00
2023-02-16T19:28:35.258Z,97164.00
2023-02-16T19:32:45.371Z,97173.00
2023-02-16T19:36:48.713Z,97165.00
2023-02-16T19:40:54.352Z,97172.00
2023-02-16T19:44:57.483Z,97168.00
2023-02-16T19:49:01.074Z,97166.00
2023-02-16T19:53:04.283Z,97172.00
2023-02-16T19:57:08.755Z,97169.00
2023-02-16T20:01:17.019Z,97169.00
2023-02-16T20:05:21.432Z,97166.00
2023-02-16T20:09:25.829Z,97171.00
2023-02-16T20:13:34.782Z,97172.00
2023-02-16T20:17:40.044Z,97176.00
2023-02-16T20:21:46.266Z,97166.00
2023-02-16T20:25:52.045Z,97167.00
2023-02-16T20:30:02.534Z,97163.00
2023-02-16T20:34:07.766Z,97168.00
2023-02-16T20:38:10.787Z,97159.00
2023-02-16T20:42:14.031Z,97158.00
2023-02-16T20:46:19.137Z,97152.00
2023-02-16T20:50:24.789Z,97147.00
2023-02-16T20:54:31.332Z,97152.00
2023-02-16T20:58:37.121Z,97140.00
2023-02-16T21:02:44.182Z,97138.00
2023-02-16T21:06:47.237Z,97139.00
2023-02-16T21:10:51.779Z,97131.00
2023-02-16T21:14:55.016Z,97135.00
2023-02-16T21:18:59.494Z,97135.00
2023-02-16T21:23:03.724Z,97136.00
2023-02-16T21:27:09.824Z,97125.00
2023-02-16T21:31:16.041Z,97128.00
2023-02-16T21:35:20.491Z,97116.00
2023-02-16T21:39:46.549Z,97121.00
2023-02-16T21:43:49.874Z,97119.00
2023-02-16T21:48:13.166Z,97112.00
2023-02-16T21:52:17.585Z,97116.00
2023-02-16T21:56:27.677Z,97107.00
2023-02-16T22:00:31.998Z,97110.00
2023-02-16T22:04:35.276Z,97118.00
2023-02-16T22:08:42.004Z,97118.00
2023-02-16T22:12:45.146Z,97118.00
2023-02-16T22:16:50.933Z,97104.00
2023-02-16T22:20:54.026Z,97110.00
2023-02-16T22:24:58.718Z,97113.00
2023-02-16T22:29:03.875Z,97119.00
2023-02-16T22:33:09.844Z,97111.00
2023-02-16T22:37:14.185Z,97099.00
2023-02-16T22:41:21.328Z,97107.00
2023-02-16T22:45:24.464Z,97102.00
2023-02-16T22:49:29.906Z,97094.00
2023-02-16T22:53:33.456Z,97078.00
2023-02-16T22:57:41.558Z,97096.00
2023-02-16T23:01:49.307Z,97093.00
2023-02-16T23:05:52.394Z,97095.00
2023-02-16T23:09:55.527Z,97097.00
2023-02-16T23:14:02.046Z,97090.00
2023-02-16T23:18:05.882Z,97090.00
2023-02-16T23:22:08.878Z,97089.00
2023-02-16T23:26:12.196Z,97082.00
2023-02-16T23:30:18.844Z,97075.00
2023-02-16T23:34:24.976Z,97081.00
2023-02-16T23:38:41.764Z,97083.00
2023-02-16T23:42:46.628Z,97082.00
2023-02-16T23:46:51.269Z,97072.00
2023-02-16T23:50:55.752Z,97081.00
2023-02-16T23:54:58.998Z,97073.00
2023-02-16T23:59:04.656Z,97066.00
